sensor_id;sensor_type;location;lat;lon;timestamp;temperature;humidity
24087;DHT22;22893;50.572;7.234;2023-02-28T22:12:30;21.30;45.60
24087;DHT22;22893;50.572;7.234;2023-02-28T22:14:57;21.30;45.60
24087;DHT22;22893;50.572;7.234;2023-02-28T22:17:25;21.30;45.50
24087;DHT22;22893;50.572;7.234;2023-02-28T22:19:52;21.30;45.60
24087;DHT22;22893;50.572;7.234;2023-02-28T22:22:20;21.30;45.50
24087;DHT22;22893;50.572;7.234;2023-02-28T22:24:47;21.20;45.70
24087;DHT22;22893;50.572;7.234;2023-02-28T22:27:15;21.20;45.90
24087;DHT22;22893;50.572;7.234;2023-02-28T22:29:42;21.20;46.40
24087;DHT22;22893;50.572;7.234;2023-02-28T22:32:10;21.20;45.60
24087;DHT22;22893;50.572;7.234;2023-02-28T22:34:39;21.20;45.60
24087;DHT22;22893;50.572;7.234;2023-02-28T22:37:07;21.20;45.90
24087;DHT22;22893;50.572;7.234;2023-02-28T22:39:34;21.20;45.70
24087;DHT22;22893;50.572;7.234;2023-02-28T22:42:01;21.20;45.60
24087;DHT22;22893;50.572;7.234;2023-02-28T22:44:29;21.20;45.40
24087;DHT22;22893;50.572;7.234;2023-02-28T22:46:57;21.20;45.50
24087;DHT22;22893;50.572;7.234;2023-02-28T22:49:24;21.20;45.50
24087;DHT22;22893;50.572;7.234;2023-02-28T22:51:52;21.20;45.50
24087;DHT22;22893;50.572;7.234;2023-02-28T22:54:19;21.20;45.40
24087;DHT22;22893;50.572;7.234;2023-02-28T22:56:47;21.20;45.50
24087;DHT22;22893;50.572;7.234;2023-02-28T22:59:14;21.20;45.40
24087;DHT22;22893;50.572;7.234;2023-02-28T23:01:42;21.20;45.50
24087;DHT22;22893;50.572;7.234;2023-02-28T23:04:10;21.20;45.30
24087;DHT22;22893;50.572;7.234;2023-02-28T23:09:15;21.20;45.60
24087;DHT22;22893;50.572;7.234;2023-02-28T23:11:50;21.20;45.30
24087;DHT22;22893;50.572;7.234;2023-02-28T23:14:19;21.20;45.30
24087;DHT22;22893;50.572;7.234;2023-02-28T23:16:49;21.20;45.30
24087;DHT22;22893;50.572;7.234;2023-02-28T23:19:26;21.20;45.30
24087;DHT22;22893;50.572;7.234;2023-02-28T23:21:50;21.20;45.30
24087;DHT22;22893;50.572;7.234;2023-02-28T23:24:19;21.20;45.30
24087;DHT22;22893;50.572;7.234;2023-02-28T23:26:49;21.20;45.20
24087;DHT22;22893;50.572;7.234;2023-02-28T23:29:19;21.20;45.30
24087;DHT22;22893;50.572;7.234;2023-02-28T23:31:47;21.20;45.20
24087;DHT22;22893;50.572;7.234;2023-02-28T23:34:17;21.20;45.20
24087;DHT22;22893;50.572;7.234;2023-02-28T23:36:46;21.20;45.10
24087;DHT22;22893;50.572;7.234;2023-02-28T23:39:16;21.20;45.10
24087;DHT22;22893;50.572;7.234;2023-02-28T23:41:44;21.20;45.10
24087;DHT22;22893;50.572;7.234;2023-02-28T23:44:12;21.20;45.10
24087;DHT22;22893;50.572;7.234;2023-02-28T23:46:49;21.20;45.10
24087;DHT22;22893;50.572;7.234;2023-02-28T23:49:18;21.20;45.00
24087;DHT22;22893;50.572;7.234;2023-02-28T23:51:47;21.20;45.10
24087;DHT22;22893;50.572;7.234;2023-02-28T23:54:15;21.20;45.00
24087;DHT22;22893;50.572;7.234;2023-02-28T23:56:44;21.20;45.00
24087;DHT22;22893;50.572;7.234;2023-02-28T23:59:11;21.10;45.10
